Time;durP1;ratioP1;P1;durP2;ratioP2;P2;SDS_P1;SDS_P2;PMS_P1;PMS_P2;Temp;Humidity;BMP_temperature;BMP_pressure;BME280_temperature;BME280_humidity;BME280_pressure;Samples;Min_cycle;Max_cycle;Signal;HPM_P1;HPM_P2
2023/05/26 00:02:20;;;;;;;12.02;2.60;;;8.50;99.90;;;;;;5051588;28;20132;-68
2023/05/26 00:04:46;;;;;;;13.38;2.63;;;8.50;99.90;;;;;;5051076;28;20049;-68
2023/05/26 00:07:11;;;;;;;10.68;2.50;;;8.50;99.90;;;;;;5051815;28;20391;-68
2023/05/26 00:09:37;;;;;;;14.30;2.88;;;8.30;99.90;;;;;;5054465;28;20053;-68
2023/05/26 00:12:04;;;;;;;17.67;3.55;;;8.40;99.90;;;;;;5053561;28;20541;-68
2023/05/26 00:14:30;;;;;;;14.82;2.42;;;8.30;99.90;;;;;;5055552;28;20043;-69
2023/05/26 00:16:56;;;;;;;13.77;3.40;;;8.30;99.90;;;;;;5054555;28;20432;-69
2023/05/26 00:19:21;;;;;;;9.80;2.83;;;8.30;99.90;;;;;;5036051;28;20034;-68
2023/05/26 00:21:47;;;;;;;10.00;2.13;;;8.30;99.90;;;;;;5051132;28;20053;-69
2023/05/26 00:24:13;;;;;;;9.32;2.35;;;8.30;99.90;;;;;;5048479;28;20045;-69
2023/05/26 00:26:38;;;;;;;9.38;2.00;;;8.30;99.90;;;;;;5054394;28;20088;-69
2023/05/26 00:29:04;;;;;;;8.52;1.60;;;8.30;99.90;;;;;;5054073;28;20481;-68
2023/05/26 00:31:30;;;;;;;9.00;1.48;;;8.30;99.90;;;;;;5053297;28;20397;-68
2023/05/26 00:33:56;;;;;;;5.90;1.52;;;8.30;99.90;;;;;;5052518;28;20036;-69
2023/05/26 00:36:21;;;;;;;5.00;1.20;;;8.30;99.90;;;;;;5054532;28;20032;-68
2023/05/26 00:38:47;;;;;;;7.85;1.67;;;8.20;99.90;;;;;;5053882;28;20098;-68
2023/05/26 00:41:13;;;;;;;12.18;2.10;;;8.20;99.90;;;;;;5053884;28;20452;-68
2023/05/26 00:43:38;;;;;;;8.90;1.95;;;8.10;99.90;;;;;;5054282;28;20061;-68
2023/05/26 00:46:04;;;;;;;12.20;2.72;;;8.10;99.90;;;;;;5053658;28;20041;-68
2023/05/26 00:48:29;;;;;;;11.82;2.72;;;8.00;99.90;;;;;;5054866;28;20091;-69
2023/05/26 00:50:56;;;;;;;12.70;2.90;;;8.00;99.90;;;;;;5053820;28;20044;-68
2023/05/26 00:53:21;;;;;;;11.82;2.70;;;7.90;99.90;;;;;;5052682;28;20107;-68
2023/05/26 00:55:50;;;;;;;12.30;2.55;;;7.80;99.90;;;;;;5052868;28;20497;-68
2023/05/26 00:58:17;;;;;;;13.02;2.92;;;7.80;99.90;;;;;;5053502;28;20048;-68
2023/05/26 01:00:43;;;;;;;11.73;2.65;;;7.80;99.90;;;;;;5052000;28;20072;-68
2023/05/26 01:03:13;;;;;;;13.90;3.10;;;7.90;99.90;;;;;;5052922;28;20500;-68
2023/05/26 01:05:39;;;;;;;16.45;3.70;;;8.00;99.90;;;;;;5054589;28;20049;-68
2023/05/26 01:08:05;;;;;;;16.05;3.80;;;7.90;99.90;;;;;;5050037;28;20524;-68
2023/05/26 01:10:31;;;;;;;15.80;3.28;;;7.80;99.90;;;;;;5033317;28;20566;-68
2023/05/26 01:13:05;;;;;;;12.27;3.25;;;7.70;99.90;;;;;;5041987;28;20120;-68
2023/05/26 01:15:40;;;;;;;11.18;2.65;;;7.70;99.90;;;;;;5054299;28;20033;-68
2023/05/26 01:18:11;;;;;;;14.57;3.60;;;7.70;99.90;;;;;;5060904;28;20121;-69
2023/05/26 01:20:45;;;;;;;13.97;3.13;;;7.60;99.90;;;;;;5050156;28;20095;-68
2023/05/26 01:23:49;;;;;;;10.40;2.00;;;7.60;99.90;;;;;;5044757;28;20045;-68
2023/05/26 01:26:33;;;;;;;9.93;2.13;;;7.70;99.90;;;;;;5041885;28;20049;-68
2023/05/26 01:29:20;;;;;;;9.48;1.83;;;7.60;99.90;;;;;;5038073;28;20387;-68
2023/05/26 01:31:46;;;;;;;7.47;1.70;;;7.60;99.90;;;;;;5042056;28;20057;-68
2023/05/26 01:34:12;;;;;;;8.48;1.80;;;7.60;99.90;;;;;;5019979;28;20478;-68
2023/05/26 01:36:37;;;;;;;9.45;2.47;;;7.60;99.90;;;;;;5034763;28;20114;-68
2023/05/26 01:39:06;;;;;;;7.45;2.00;;;7.60;99.90;;;;;;5033044;28;20038;-68
2023/05/26 01:41:49;;;;;;;8.50;2.20;;;7.50;99.90;;;;;;5032352;28;20052;-68
2023/05/26 01:44:29;;;;;;;10.63;2.00;;;7.50;99.90;;;;;;5049548;28;20160;-68
2023/05/26 01:46:55;;;;;;;8.25;1.90;;;7.40;99.90;;;;;;5033836;28;20405;-68
2023/05/26 01:49:26;;;;;;;7.50;1.83;;;7.40;99.90;;;;;;5032621;28;20050;-68
2023/05/26 01:52:01;;;;;;;10.30;2.47;;;7.40;99.90;;;;;;5033703;28;20049;-68
2023/05/26 01:54:31;;;;;;;11.82;2.50;;;7.30;99.90;;;;;;5032543;28;20106;-68
2023/05/26 01:56:57;;;;;;;11.70;2.17;;;7.30;99.90;;;;;;5032488;28;20041;-68
2023/05/26 01:59:23;;;;;;;7.80;2.03;;;7.20;99.90;;;;;;5033154;28;20049;-68
2023/05/26 02:01:49;;;;;;;11.23;2.20;;;7.30;99.90;;;;;;5036427;28;20052;-68
2023/05/26 02:04:15;;;;;;;7.22;1.60;;;7.20;99.90;;;;;;5052044;28;20044;-69
2023/05/26 02:06:41;;;;;;;6.82;1.98;;;7.10;99.90;;;;;;5052412;28;20447;-69
2023/05/26 02:09:07;;;;;;;9.35;2.30;;;7.10;99.90;;;;;;5036232;28;20052;-69
2023/05/26 02:11:33;;;;;;;7.90;2.05;;;7.10;99.90;;;;;;5025740;28;20069;-69
2023/05/26 02:13:59;;;;;;;7.32;2.35;;;7.10;99.90;;;;;;5065836;28;20076;-69
2023/05/26 02:16:26;;;;;;;4.53;1.08;;;7.10;99.90;;;;;;5052705;28;20032;-69
2023/05/26 02:18:52;;;;;;;7.93;1.58;;;7.10;99.90;;;;;;5036835;28;20072;-68
2023/05/26 02:21:18;;;;;;;4.47;1.30;;;7.20;99.90;;;;;;5048796;28;20044;-68
2023/05/26 02:23:44;;;;;;;9.55;1.88;;;7.10;99.90;;;;;;5053289;28;20094;-69
2023/05/26 02:26:10;;;;;;;9.43;2.20;;;7.10;99.90;;;;;;5051872;28;20439;-68
2023/05/26 02:28:37;;;;;;;13.43;2.67;;;7.00;99.90;;;;;;5040601;28;20045;-68
2023/05/26 02:31:04;;;;;;;8.93;2.10;;;6.90;99.90;;;;;;5048479;28;20037;-69
2023/05/26 02:33:29;;;;;;;11.82;2.50;;;6.90;99.90;;;;;;5031680;28;20045;-69
2023/05/26 02:35:55;;;;;;;14.40;3.15;;;6.90;99.90;;;;;;5034410;28;20150;-68
2023/05/26 02:38:22;;;;;;;12.15;2.50;;;6.80;99.90;;;;;;5053196;28;20060;-68
2023/05/26 02:40:49;;;;;;;12.27;2.80;;;6.80;99.90;;;;;;5051776;28;20493;-68
2023/05/26 02:43:15;;;;;;;8.68;2.42;;;6.80;99.90;;;;;;5052061;28;20056;-69
2023/05/26 02:45:41;;;;;;;9.45;2.25;;;6.80;99.90;;;;;;5035066;28;20045;-68
2023/05/26 02:48:06;;;;;;;10.75;2.13;;;6.80;99.90;;;;;;5042706;28;20110;-68
2023/05/26 02:50:32;;;;;;;9.10;2.17;;;6.80;99.90;;;;;;5015430;28;20049;-69
2023/05/26 02:52:57;;;;;;;13.80;3.50;;;6.80;99.90;;;;;;5060450;28;20440;-69
2023/05/26 02:55:24;;;;;;;7.25;2.00;;;6.70;99.90;;;;;;5051645;28;20045;-69
2023/05/26 02:57:51;;;;;;;4.63;1.02;;;6.70;99.90;;;;;;5051409;28;20075;-68
2023/05/26 03:00:17;;;;;;;5.57;1.10;;;6.80;99.90;;;;;;5051668;28;20052;-68
2023/05/26 03:02:43;;;;;;;3.08;0.98;;;6.80;99.90;;;;;;5046404;28;20036;-68
2023/05/26 03:05:09;;;;;;;2.47;0.88;;;6.80;99.90;;;;;;5044946;28;20393;-68
2023/05/26 03:07:35;;;;;;;3.95;1.10;;;6.80;99.90;;;;;;5032911;28;20124;-68
2023/05/26 03:10:00;;;;;;;3.50;1.00;;;6.80;99.90;;;;;;5032840;28;20045;-68
2023/05/26 03:12:26;;;;;;;5.22;1.10;;;6.70;99.90;;;;;;5031664;28;20384;-68
2023/05/26 03:14:51;;;;;;;5.25;1.23;;;6.60;99.90;;;;;;5031507;28;20042;-68
2023/05/26 03:17:17;;;;;;;5.95;1.40;;;6.60;99.90;;;;;;5032343;28;20069;-68
2023/05/26 03:19:45;;;;;;;7.80;1.70;;;6.60;99.90;;;;;;5015341;28;20037;-68
2023/05/26 03:22:11;;;;;;;5.72;1.80;;;6.50;99.90;;;;;;5033411;28;20040;-68
2023/05/26 03:24:37;;;;;;;9.70;1.95;;;6.50;99.90;;;;;;5031415;28;20049;-68
2023/05/26 03:27:04;;;;;;;11.38;2.03;;;6.40;99.90;;;;;;5016396;28;20437;-68
2023/05/26 03:29:30;;;;;;;10.05;3.10;;;6.40;99.90;;;;;;5056480;28;20056;-68
2023/05/26 03:31:56;;;;;;;10.50;1.75;;;6.40;99.90;;;;;;5051582;28;20464;-69
2023/05/26 03:34:24;;;;;;;7.03;2.33;;;6.40;99.90;;;;;;5055330;28;20443;-68
2023/05/26 03:36:49;;;;;;;3.92;1.20;;;6.40;99.90;;;;;;5054976;28;20512;-68
2023/05/26 03:39:15;;;;;;;8.02;2.03;;;6.40;99.90;;;;;;5041400;28;20041;-69
2023/05/26 03:41:41;;;;;;;8.80;1.88;;;6.40;99.90;;;;;;5034660;28;20559;-68
2023/05/26 03:44:07;;;;;;;8.40;2.10;;;6.30;99.90;;;;;;5034978;28;20124;-68
2023/05/26 03:46:33;;;;;;;9.00;2.10;;;6.40;99.90;;;;;;5034788;28;20126;-68
2023/05/26 03:48:58;;;;;;;14.48;2.42;;;6.40;99.90;;;;;;5049381;28;20044;-68
2023/05/26 03:51:24;;;;;;;8.30;1.80;;;6.50;99.90;;;;;;5054696;28;20041;-68
2023/05/26 03:53:50;;;;;;;2.78;0.95;;;6.50;99.90;;;;;;5055809;28;20509;-68
2023/05/26 03:56:16;;;;;;;4.38;1.00;;;6.50;99.90;;;;;;5054563;28;20049;-68
2023/05/26 03:58:41;;;;;;;3.83;0.90;;;6.50;99.90;;;;;;5040931;28;20076;-69
2023/05/26 04:01:07;;;;;;;5.13;1.13;;;6.40;99.90;;;;;;5051267;28;20045;-68
2023/05/26 04:03:33;;;;;;;5.90;1.92;;;6.30;99.90;;;;;;5050126;28;20448;-68
2023/05/26 04:06:00;;;;;;;6.40;1.63;;;6.30;99.90;;;;;;5050612;28;20079;-68
2023/05/26 04:08:26;;;;;;;5.80;1.48;;;6.30;99.90;;;;;;5034731;28;20052;-68
2023/05/26 04:10:52;;;;;;;9.07;2.38;;;6.30;99.90;;;;;;5034023;28;20041;-68
2023/05/26 04:13:17;;;;;;;9.25;2.53;;;6.30;99.90;;;;;;5060473;28;20048;-68
2023/05/26 04:15:43;;;;;;;13.10;2.30;;;6.30;99.90;;;;;;5055653;28;20124;-69
2023/05/26 04:18:10;;;;;;;10.40;2.50;;;6.30;99.90;;;;;;5053653;28;20115;-69
2023/05/26 04:20:36;;;;;;;9.13;1.80;;;6.30;99.90;;;;;;5054217;28;20557;-68
2023/05/26 04:23:01;;;;;;;5.78;1.60;;;6.40;99.90;;;;;;5048326;28;20120;-68
2023/05/26 04:25:27;;;;;;;6.60;2.10;;;6.50;99.90;;;;;;5062114;28;20079;-69
2023/05/26 04:27:56;;;;;;;7.78;1.90;;;6.50;99.90;;;;;;5053160;28;20088;-68
2023/05/26 04:30:22;;;;;;;6.40;1.38;;;6.50;99.90;;;;;;5055458;28;20048;-68
2023/05/26 04:32:48;;;;;;;6.03;2.30;;;6.60;99.90;;;;;;5053079;28;20041;-68
2023/05/26 04:35:14;;;;;;;6.75;1.70;;;6.50;99.90;;;;;;5054085;28;20037;-68
2023/05/26 04:37:40;;;;;;;8.02;2.33;;;6.60;99.90;;;;;;5049881;28;20034;-68
2023/05/26 04:40:09;;;;;;;7.00;1.77;;;6.60;99.90;;;;;;5035423;28;20041;-68
2023/05/26 04:42:37;;;;;;;6.28;1.65;;;6.60;99.90;;;;;;5037055;28;20049;-68
2023/05/26 04:45:04;;;;;;;5.10;1.55;;;6.60;99.90;;;;;;5054007;28;20421;-68
2023/05/26 04:47:34;;;;;;;5.80;1.45;;;6.70;99.90;;;;;;5054912;28;20052;-68
2023/05/26 04:50:03;;;;;;;7.00;1.60;;;6.70;99.90;;;;;;5070560;28;20067;-68
2023/05/26 04:52:29;;;;;;;8.50;1.90;;;6.80;99.90;;;;;;5052525;28;20049;-68
2023/05/26 04:54:55;;;;;;;11.45;2.22;;;6.80;99.90;;;;;;5054057;28;20041;-68
2023/05/26 04:57:20;;;;;;;11.25;2.13;;;6.90;99.90;;;;;;5051185;28;20041;-68
2023/05/26 04:59:46;;;;;;;9.57;2.70;;;6.90;99.90;;;;;;5033558;28;20452;-68
2023/05/26 05:02:12;;;;;;;13.95;2.85;;;6.90;99.90;;;;;;5050519;28;20553;-68
2023/05/26 05:04:40;;;;;;;14.32;2.85;;;7.00;99.90;;;;;;5050491;28;20049;-68
2023/05/26 05:07:05;;;;;;;13.52;2.80;;;7.00;99.90;;;;;;5058610;28;20555;-69
2023/05/26 05:09:31;;;;;;;8.80;2.40;;;7.00;99.90;;;;;;5047458;28;20033;-70
2023/05/26 05:11:56;;;;;;;12.77;2.55;;;7.10;99.90;;;;;;5045515;28;20068;-69
2023/05/26 05:14:22;;;;;;;9.27;2.53;;;7.20;99.90;;;;;;5045817;28;20037;-69
2023/05/26 05:16:47;;;;;;;13.43;2.58;;;7.10;99.90;;;;;;5052922;28;20500;-69
2023/05/26 05:19:13;;;;;;;12.35;3.03;;;7.20;99.90;;;;;;5052858;28;20035;-67
2023/05/26 05:21:39;;;;;;;11.93;2.58;;;7.30;99.90;;;;;;5053292;28;20084;-68
2023/05/26 05:24:04;;;;;;;11.10;2.60;;;7.40;99.90;;;;;;5050203;28;20041;-68
2023/05/26 05:26:30;;;;;;;11.55;3.17;;;7.40;99.90;;;;;;5053284;28;20040;-68
2023/05/26 05:28:56;;;;;;;10.25;2.97;;;7.50;99.90;;;;;;5067740;28;20037;-68
2023/05/26 05:31:21;;;;;;;10.05;2.72;;;7.60;99.90;;;;;;5050612;28;20057;-68
2023/05/26 05:33:47;;;;;;;14.35;3.13;;;7.70;99.90;;;;;;5051212;28;20366;-68
2023/05/26 05:36:12;;;;;;;11.93;3.00;;;7.70;99.90;;;;;;5051114;28;20068;-68
2023/05/26 05:38:38;;;;;;;13.75;3.15;;;7.80;99.90;;;;;;5060665;28;20048;-68
2023/05/26 05:41:04;;;;;;;13.45;2.90;;;7.80;99.90;;;;;;5049592;28;20083;-68
2023/05/26 05:43:29;;;;;;;13.55;3.20;;;7.90;99.90;;;;;;5038514;28;20382;-68
2023/05/26 05:45:55;;;;;;;15.50;3.40;;;8.10;99.90;;;;;;5047311;28;20112;-69
2023/05/26 05:48:21;;;;;;;15.32;3.22;;;8.20;99.90;;;;;;5052324;28;20126;-68
2023/05/26 05:50:46;;;;;;;18.25;3.90;;;8.30;99.90;;;;;;5051653;28;20056;-68
2023/05/26 05:53:12;;;;;;;12.05;3.15;;;8.30;99.90;;;;;;5050605;28;20057;-68
2023/05/26 05:55:37;;;;;;;17.08;3.50;;;8.50;99.90;;;;;;5039816;28;20070;-68
2023/05/26 05:58:03;;;;;;;18.92;4.47;;;8.60;99.90;;;;;;5050978;28;20048;-68
2023/05/26 06:00:28;;;;;;;14.60;3.33;;;8.60;99.90;;;;;;5052039;28;20044;-69
2023/05/26 06:02:55;;;;;;;18.67;4.57;;;8.70;99.90;;;;;;5034607;28;20464;-69
2023/05/26 06:05:21;;;;;;;22.38;4.50;;;8.90;99.90;;;;;;5051612;28;20064;-68
2023/05/26 06:07:46;;;;;;;24.92;4.32;;;9.00;99.90;;;;;;5050557;28;20469;-69
2023/05/26 06:10:12;;;;;;;20.27;4.32;;;9.10;99.90;;;;;;5052517;28;20045;-69
2023/05/26 06:12:37;;;;;;;22.73;4.40;;;9.10;99.90;;;;;;5046597;28;20579;-69
2023/05/26 06:15:03;;;;;;;26.15;4.20;;;9.30;99.90;;;;;;5052979;28;20041;-69
2023/05/26 06:17:29;;;;;;;17.98;4.10;;;9.30;99.90;;;;;;5051222;28;20094;-69
2023/05/26 06:19:54;;;;;;;17.83;3.92;;;9.40;99.90;;;;;;5040030;28;20437;-69
2023/05/26 06:22:20;;;;;;;19.40;4.20;;;9.50;99.90;;;;;;5051693;28;20069;-68
2023/05/26 06:24:46;;;;;;;28.80;5.53;;;9.50;99.90;;;;;;5055904;28;20044;-69
2023/05/26 06:27:11;;;;;;;21.73;4.07;;;9.60;99.90;;;;;;5053233;28;20094;-69
2023/05/26 06:29:37;;;;;;;19.80;4.05;;;9.70;99.90;;;;;;5048987;28;20041;-69
2023/05/26 06:32:03;;;;;;;29.63;5.85;;;9.70;99.90;;;;;;5050933;28;20048;-69
2023/05/26 06:34:28;;;;;;;18.23;3.53;;;9.80;99.90;;;;;;5051828;28;20072;-69
2023/05/26 06:36:54;;;;;;;22.88;5.15;;;9.90;99.90;;;;;;5049959;28;20037;-69
2023/05/26 06:39:20;;;;;;;19.45;4.30;;;9.90;99.90;;;;;;5047545;28;20033;-70
2023/05/26 06:41:46;;;;;;;19.73;3.42;;;10.00;99.90;;;;;;5038692;28;20055;-71
2023/05/26 06:44:12;;;;;;;17.45;3.80;;;10.10;99.90;;;;;;5052001;28;20053;-69
2023/05/26 06:46:38;;;;;;;21.35;3.47;;;10.20;99.90;;;;;;5058958;28;20037;-70
2023/05/26 06:49:04;;;;;;;19.00;3.95;;;10.30;99.90;;;;;;5047887;28;20136;-69
2023/05/26 06:51:30;;;;;;;20.50;4.00;;;10.40;99.90;;;;;;5034928;28;20405;-69
2023/05/26 06:53:56;;;;;;;21.00;4.47;;;10.40;99.90;;;;;;5052773;28;20061;-69
2023/05/26 06:56:22;;;;;;;17.17;3.50;;;10.50;99.90;;;;;;5052994;28;20036;-69
2023/05/26 06:58:47;;;;;;;17.75;3.60;;;10.50;99.90;;;;;;5044427;28;20037;-69
2023/05/26 07:01:13;;;;;;;16.38;4.38;;;10.60;99.90;;;;;;5042026;28;20033;-68
2023/05/26 07:03:38;;;;;;;19.42;3.70;;;10.60;99.90;;;;;;5035656;28;20041;-69
2023/05/26 07:06:04;;;;;;;19.73;3.80;;;10.70;99.90;;;;;;5035745;28;20398;-69
2023/05/26 07:08:31;;;;;;;21.05;3.72;;;10.70;99.90;;;;;;5035571;28;20045;-69
2023/05/26 07:10:57;;;;;;;20.10;4.22;;;10.70;99.90;;;;;;5035886;28;20478;-70
2023/05/26 07:13:23;;;;;;;21.27;3.97;;;10.90;99.90;;;;;;5036816;28;20084;-70
2023/05/26 07:15:48;;;;;;;14.65;3.25;;;11.20;99.90;;;;;;5041601;28;20059;-70
2023/05/26 07:18:14;;;;;;;14.73;2.83;;;11.40;99.90;;;;;;5055452;28;20041;-70
2023/05/26 07:20:39;;;;;;;15.10;3.42;;;11.60;99.90;;;;;;5054495;28;20494;-70
2023/05/26 07:23:05;;;;;;;16.00;2.92;;;11.90;99.90;;;;;;5056769;28;20086;-69
2023/05/26 07:25:31;;;;;;;26.35;4.68;;;12.00;99.90;;;;;;5055224;28;20481;-69
2023/05/26 07:27:56;;;;;;;15.05;3.53;;;12.20;99.90;;;;;;5056564;28;20043;-69
2023/05/26 07:30:22;;;;;;;13.13;3.20;;;12.40;99.90;;;;;;5055400;28;20493;-69
2023/05/26 07:32:48;;;;;;;17.50;3.08;;;12.60;99.90;;;;;;5050212;28;20036;-69
2023/05/26 07:35:14;;;;;;;16.70;3.47;;;12.60;99.90;;;;;;5036430;28;20462;-69
2023/05/26 07:37:40;;;;;;;14.95;3.25;;;12.70;99.90;;;;;;5038429;28;20120;-69
2023/05/26 07:40:06;;;;;;;15.32;2.90;;;12.70;99.90;;;;;;5056350;28;20086;-69
2023/05/26 07:42:34;;;;;;;17.17;3.05;;;12.90;99.90;;;;;;5053983;28;20048;-69
2023/05/26 07:45:01;;;;;;;13.93;2.70;;;12.90;99.90;;;;;;5056207;28;20087;-69
2023/05/26 07:47:31;;;;;;;16.77;3.30;;;13.00;99.90;;;;;;5071490;28;20037;-70
2023/05/26 07:50:00;;;;;;;17.50;3.30;;;13.00;99.90;;;;;;5049533;28;20127;-69
2023/05/26 07:52:25;;;;;;;16.23;2.67;;;13.10;99.90;;;;;;5035989;28;20049;-69
2023/05/26 07:54:51;;;;;;;14.90;2.83;;;13.10;99.90;;;;;;5034824;28;20406;-69
2023/05/26 07:57:17;;;;;;;18.00;3.15;;;13.20;99.90;;;;;;5036124;28;20033;-69
2023/05/26 07:59:43;;;;;;;13.70;2.78;;;13.40;99.90;;;;;;5035924;28;20033;-69
2023/05/26 08:02:10;;;;;;;13.60;3.08;;;13.40;99.90;;;;;;5036206;28;20379;-70
2023/05/26 08:04:35;;;;;;;15.82;3.65;;;13.50;99.90;;;;;;5034644;28;20535;-70
2023/05/26 08:07:01;;;;;;;15.07;3.47;;;13.50;99.90;;;;;;5034342;28;20042;-70
2023/05/26 08:09:27;;;;;;;17.27;3.22;;;13.60;99.90;;;;;;5035840;28;20045;-69
2023/05/26 08:11:52;;;;;;;13.57;3.63;;;13.70;99.90;;;;;;5034486;28;20052;-69
2023/05/26 08:14:20;;;;;;;21.55;3.05;;;13.70;99.90;;;;;;5035201;28;20038;-69
2023/05/26 08:16:45;;;;;;;12.57;2.85;;;13.70;99.90;;;;;;5017923;28;20045;-69
2023/05/26 08:19:11;;;;;;;16.27;2.90;;;13.70;99.90;;;;;;5034531;28;20042;-69
2023/05/26 08:21:37;;;;;;;13.55;2.60;;;13.80;99.90;;;;;;5034304;28;20045;-69
2023/05/26 08:24:02;;;;;;;14.02;2.72;;;13.90;99.90;;;;;;5039786;28;20128;-69
2023/05/26 08:26:28;;;;;;;15.27;3.78;;;14.00;99.90;;;;;;5055451;28;20037;-69
2023/05/26 08:28:54;;;;;;;15.68;2.80;;;14.10;99.90;;;;;;5055311;28;20037;-69
2023/05/26 08:31:20;;;;;;;14.13;3.08;;;14.20;99.90;;;;;;5070699;28;20083;-69
2023/05/26 08:33:45;;;;;;;13.25;2.90;;;14.20;99.90;;;;;;5070962;28;20099;-69
2023/05/26 08:36:11;;;;;;;13.75;2.95;;;14.30;99.90;;;;;;5070043;28;20032;-69
2023/05/26 08:38:37;;;;;;;17.23;2.75;;;14.30;99.90;;;;;;5053912;28;20049;-69
2023/05/26 08:41:04;;;;;;;17.50;3.67;;;14.30;99.90;;;;;;5044405;28;20393;-69
2023/05/26 08:43:52;;;;;;;12.15;3.70;;;14.50;99.90;;;;;;5053775;28;20045;-69
2023/05/26 08:46:19;;;;;;;13.43;2.92;;;14.50;99.90;;;;;;5054092;28;20401;-69
2023/05/26 08:48:46;;;;;;;17.13;3.50;;;14.50;99.90;;;;;;5037163;28;20508;-69
2023/05/26 08:51:12;;;;;;;15.45;2.83;;;14.50;99.90;;;;;;5053639;28;20053;-69
2023/05/26 08:53:39;;;;;;;15.68;4.00;;;14.60;99.90;;;;;;5053518;28;20386;-69
2023/05/26 08:56:07;;;;;;;13.45;3.15;;;14.70;99.90;;;;;;5053588;28;20048;-69
2023/05/26 08:58:34;;;;;;;17.55;2.90;;;14.70;99.90;;;;;;5051059;28;20047;-69
2023/05/26 09:01:01;;;;;;;10.50;2.58;;;14.90;99.90;;;;;;5054555;28;20120;-69
2023/05/26 09:03:28;;;;;;;14.70;2.88;;;14.90;99.90;;;;;;5053771;28;20040;-69
2023/05/26 09:05:53;;;;;;;10.60;2.42;;;14.90;99.90;;;;;;5052157;28;20497;-69
2023/05/26 09:08:19;;;;;;;14.55;2.63;;;15.00;99.90;;;;;;5053646;28;20082;-69
2023/05/26 09:10:45;;;;;;;12.80;3.13;;;15.00;99.90;;;;;;5053243;28;20057;-69
2023/05/26 09:13:14;;;;;;;13.35;3.05;;;15.10;99.90;;;;;;5054726;28;20390;-71
2023/05/26 09:15:40;;;;;;;16.05;2.78;;;15.20;99.90;;;;;;5049259;28;20312;-71
2023/05/26 09:18:15;;;;;;;14.15;2.88;;;15.20;99.90;;;;;;5052331;28;20045;-69
2023/05/26 09:20:46;;;;;;;17.15;3.53;;;15.30;99.90;;;;;;5036486;28;20076;-68
2023/05/26 09:23:14;;;;;;;13.38;3.05;;;15.30;99.90;;;;;;5053083;28;20049;-70
2023/05/26 09:25:40;;;;;;;11.98;3.00;;;15.30;99.90;;;;;;5052207;28;20497;-70
2023/05/26 09:28:08;;;;;;;12.32;2.80;;;15.30;99.90;;;;;;5054407;28;20067;-70
2023/05/26 09:30:43;;;;;;;12.82;3.08;;;15.30;99.90;;;;;;5053143;28;20053;-70
2023/05/26 09:33:17;;;;;;;15.07;2.70;;;15.30;99.90;;;;;;5045704;28;20045;-71
2023/05/26 09:35:47;;;;;;;13.20;2.67;;;15.40;99.90;;;;;;5044950;28;20033;-71
2023/05/26 09:38:18;;;;;;;16.60;2.72;;;15.50;99.90;;;;;;5045047;28;20029;-74
2023/05/26 09:40:48;;;;;;;16.17;3.40;;;15.50;99.90;;;;;;5047330;28;20151;-72
2023/05/26 09:43:18;;;;;;;11.55;2.65;;;15.60;99.90;;;;;;5052656;28;20092;-72
2023/05/26 09:45:44;;;;;;;11.05;2.53;;;15.60;99.90;;;;;;5052790;28;20072;-71
2023/05/26 09:48:10;;;;;;;14.52;2.58;;;15.70;99.90;;;;;;5046417;28;20068;-70
2023/05/26 09:50:37;;;;;;;12.38;2.55;;;15.80;99.90;;;;;;5052720;28;20045;-71
2023/05/26 09:53:05;;;;;;;14.25;2.90;;;15.90;99.90;;;;;;5035817;28;20417;-71
2023/05/26 09:55:31;;;;;;;9.63;2.05;;;16.00;99.90;;;;;;5053856;28;20049;-71
2023/05/26 09:58:04;;;;;;;13.18;2.38;;;16.00;99.90;;;;;;5036097;28;20041;-72
2023/05/26 10:00:31;;;;;;;11.70;2.78;;;16.10;99.90;;;;;;5052279;28;20043;-69
2023/05/26 10:02:57;;;;;;;12.38;2.65;;;16.00;99.90;;;;;;5047760;28;20053;-69
2023/05/26 10:05:24;;;;;;;10.77;2.42;;;16.00;99.90;;;;;;5035792;28;20390;-83
2023/05/26 10:07:52;;;;;;;11.25;2.53;;;16.00;99.90;;;;;;5035175;28;20044;-69
2023/05/26 10:10:18;;;;;;;15.93;2.88;;;16.10;99.90;;;;;;5040901;28;20512;-69
2023/05/26 10:12:44;;;;;;;13.73;2.97;;;16.00;99.90;;;;;;5032922;28;20494;-69
2023/05/26 10:15:10;;;;;;;14.63;2.97;;;16.20;99.90;;;;;;5033469;28;20033;-69
2023/05/26 10:17:37;;;;;;;12.07;2.67;;;16.30;99.90;;;;;;5032436;28;20049;-71
2023/05/26 10:20:04;;;;;;;13.45;3.00;;;16.20;99.90;;;;;;5032437;28;20149;-71
2023/05/26 10:22:58;;;;;;;13.70;3.30;;;16.20;99.90;;;;;;5035079;28;20045;-69
2023/05/26 10:25:46;;;;;;;13.65;2.90;;;16.30;99.90;;;;;;5049682;28;20053;-69
2023/05/26 10:28:33;;;;;;;10.23;2.38;;;16.30;99.90;;;;;;5052742;28;20072;-70
2023/05/26 10:31:00;;;;;;;10.00;2.45;;;16.40;99.90;;;;;;5046606;28;20124;-69
2023/05/26 10:33:43;;;;;;;18.35;3.60;;;16.40;99.90;;;;;;5051012;28;20048;-70
2023/05/26 10:36:17;;;;;;;13.25;2.60;;;16.30;99.90;;;;;;5050610;28;20025;-70
2023/05/26 10:38:47;;;;;;;15.25;3.05;;;16.30;99.90;;;;;;5051857;28;20051;-69
2023/05/26 10:41:37;;;;;;;12.15;3.10;;;16.30;99.90;;;;;;5053147;28;20040;-69
2023/05/26 10:44:03;;;;;;;12.57;2.75;;;16.30;99.90;;;;;;5050942;28;20044;-69
2023/05/26 10:46:39;;;;;;;14.43;3.13;;;16.50;99.90;;;;;;5052819;28;20489;-69
2023/05/26 10:49:19;;;;;;;13.77;3.20;;;16.20;99.90;;;;;;5049730;28;20078;-69
2023/05/26 10:52:12;;;;;;;10.00;2.05;;;16.40;99.90;;;;;;5024502;28;20041;-69
2023/05/26 10:54:37;;;;;;;;;;;16.40;99.90;;;;;;5049349;28;20095;-69
2023/05/26 10:57:03;;;;;;;11.73;2.45;;;16.30;99.90;;;;;;5047955;28;19917;-69
2023/05/26 10:59:33;;;;;;;13.30;3.03;;;16.30;99.90;;;;;;5047691;28;20131;-69
2023/05/26 11:02:07;;;;;;;14.23;3.28;;;16.30;99.90;;;;;;5047892;28;20029;-69
2023/05/26 11:04:43;;;;;;;13.52;3.05;;;16.20;99.90;;;;;;5051571;28;20120;-69
2023/05/26 11:07:26;;;;;;;11.20;3.03;;;16.30;99.90;;;;;;5044230;28;20090;-69
2023/05/26 11:10:06;;;;;;;12.50;2.67;;;16.30;99.90;;;;;;5040452;28;20053;-69
2023/05/26 11:12:34;;;;;;;13.23;2.72;;;16.40;99.90;;;;;;5034298;28;20084;-69
2023/05/26 11:15:26;;;;;;;13.65;2.58;;;16.30;99.90;;;;;;5039848;28;20080;-70
2023/05/26 11:18:08;;;;;;;11.95;3.20;;;16.50;99.90;;;;;;5043863;28;20624;-70
2023/05/26 11:20:34;;;;;;;;;;;16.60;99.90;;;;;;5037937;28;20055;-70
2023/05/26 11:22:59;;;;;;;11.43;2.75;;;16.50;99.90;;;;;;5051343;28;19916;-71
2023/05/26 11:25:26;;;;;;;10.27;2.67;;;16.50;99.90;;;;;;5041585;28;20481;-70
2023/05/26 11:27:52;;;;;;;15.15;3.28;;;16.50;99.90;;;;;;5042974;28;20041;-70
2023/05/26 11:30:19;;;;;;;14.68;3.47;;;16.40;99.90;;;;;;5034699;28;20037;-71
2023/05/26 11:32:45;;;;;;;14.82;3.35;;;16.30;99.90;;;;;;5030983;28;20041;-70
2023/05/26 11:35:25;;;;;;;11.73;2.88;;;16.40;99.90;;;;;;5032884;28;20088;-70
2023/05/26 11:37:51;;;;;;;14.57;2.97;;;16.40;99.90;;;;;;5033303;28;20052;-70
2023/05/26 11:40:17;;;;;;;12.43;3.00;;;16.70;99.90;;;;;;5031340;28;20402;-70
2023/05/26 11:42:53;;;;;;;12.40;3.20;;;16.60;99.90;;;;;;5030997;28;20437;-70
2023/05/26 11:45:18;;;;;;;11.00;2.97;;;16.70;99.90;;;;;;5033496;28;20508;-70
2023/05/26 11:47:44;;;;;;;14.38;3.33;;;16.60;99.90;;;;;;5051953;28;20040;-70
2023/05/26 11:50:11;;;;;;;13.13;3.50;;;16.50;99.90;;;;;;5054773;28;20045;-70
2023/05/26 11:52:47;;;;;;;11.18;3.10;;;16.40;99.90;;;;;;5054637;28;20060;-70
2023/05/26 11:55:14;;;;;;;15.48;2.95;;;16.50;99.90;;;;;;5054648;28;20050;-70
2023/05/26 11:57:42;;;;;;;13.55;2.78;;;16.50;99.90;;;;;;5051813;28;20041;-70
2023/05/26 12:00:14;;;;;;;15.38;3.75;;;16.70;99.90;;;;;;5038425;28;20041;-70
2023/05/26 12:02:40;;;;;;;13.18;3.25;;;16.40;99.90;;;;;;5049393;28;20394;-71
2023/05/26 12:05:28;;;;;;;14.95;3.15;;;16.40;99.90;;;;;;5053481;28;20049;-69
2023/05/26 12:08:07;;;;;;;17.75;3.40;;;16.20;99.90;;;;;;5054765;28;20079;-70
2023/05/26 12:10:35;;;;;;;16.45;3.95;;;16.30;99.90;;;;;;5055666;28;20043;-70
2023/05/26 12:13:01;;;;;;;16.75;4.10;;;16.20;99.90;;;;;;5031568;28;20454;-70
2023/05/26 12:15:27;;;;;;;13.88;3.60;;;16.30;99.90;;;;;;5054330;28;20116;-70
2023/05/26 12:17:55;;;;;;;12.65;2.95;;;16.40;99.90;;;;;;5054295;28;20052;-70
2023/05/26 12:20:22;;;;;;;15.02;3.28;;;16.30;99.90;;;;;;5052602;28;20045;-70
2023/05/26 12:22:52;;;;;;;14.20;3.00;;;16.20;99.90;;;;;;5054263;28;20073;-71
2023/05/26 12:25:24;;;;;;;16.75;3.30;;;16.20;99.90;;;;;;5050073;28;20041;-70
2023/05/26 12:27:50;;;;;;;15.60;3.75;;;16.40;99.90;;;;;;5041459;28;20037;-70
2023/05/26 12:30:20;;;;;;;12.55;3.20;;;16.40;99.90;;;;;;5054151;28;20441;-70
2023/05/26 12:32:47;;;;;;;13.88;4.03;;;16.30;99.90;;;;;;5036338;28;20047;-71
2023/05/26 12:35:13;;;;;;;17.45;3.38;;;16.40;99.90;;;;;;5044335;28;20034;-70
2023/05/26 12:37:39;;;;;;;12.52;2.85;;;16.70;99.90;;;;;;5052220;28;20040;-70
2023/05/26 12:40:06;;;;;;;19.33;4.70;;;16.60;99.90;;;;;;5053025;28;20044;-74
2023/05/26 12:42:32;;;;;;;18.35;3.47;;;16.30;99.90;;;;;;5046223;28;20044;-71
2023/05/26 12:44:58;;;;;;;17.13;3.55;;;16.20;99.90;;;;;;5052254;28;20458;-71
2023/05/26 12:47:23;;;;;;;14.90;3.38;;;16.10;99.90;;;;;;5055458;28;20041;-71
2023/05/26 12:49:49;;;;;;;14.30;3.08;;;16.10;99.90;;;;;;5053980;28;20055;-70